Meteo Giornale » Osservazioni meteo Stati Uniti (USA) » Malmstrom
ore: 13:55 - Osservazioni Meteo Malmstrom
Lat. 47° 30' N Lon. 111° 11' W Alt. 1075 metri s.l.m.
23 °C
Sereno
Temp. 24 Ore
9 °C
23 °C
Ovest/Sud-Ovest
14.8 Km/h
Dew point 3 °C
Umidità 26 %
Visibilità 10 Km
Il sole sorge alle ore 06:42
Il sole tramonta alle ore 20:07
| Data e Ora | Cielo e Fenomeni | T °C | DP °C | Um. % | Pres. hPa | Vis. km | Vento km/h | |
|---|---|---|---|---|---|---|---|---|
| Oggi h: 13:55 | Sereno | 23 | 3 | 26 | 1015 | 10 | O/SO 14.8 | |
| Oggi h: 12:55 | Sereno | 21 | 3 | 30 | 1016 | 10 | NO 9.3 | |
| Oggi h: 11:55 | Sereno | 20 | 3 | 32 | 1017 | 10 | O 13 | |
| Oggi h: 10:55 | Sereno | 19 | 3 | 34 | 1017 | 10 | O/SO 11.1 | |
| Oggi h: 09:55 | Sereno | 18 | 3 | 36 | 1017 | 10 | O/SO 22.2 | |
| Oggi h: 08:55 | Sereno | 16 | 4 | 44 | 1017 | 10 | SO 18.5 | |
| Oggi h: 07:55 | Sereno | 12 | 4 | 57 | 1016 | 10 | O/SO 11.1 | |
| Oggi h: 06:55 | Sereno | 9 | 3 | 66 | 1016 | 10 | SO 18.5 | |
| Oggi h: 05:55 | Sereno | 11 | 3 | 57 | 1015 | 10 | SO 20.3 | |
| Oggi h: 04:55 | Sereno | 10 | 3 | 61 | 1015 | 10 | SO 16.7 | |
| Oggi h: 03:55 | Sereno | 11 | 4 | 61 | 1015 | 10 | O/SO 13 | |
| Oggi h: 02:55 | Sereno | 12 | 2 | 50 | 1014 | 10 | SO 24 | |
| Oggi h: 01:55 | Sereno | 13 | 2 | 47 | 1014 | 10 | O/SO 20.3 | |
| Oggi h: 00:55 | Nuvoloso | 14 | 2 | 44 | 1014 | 10 | O/SO 16.7 | |
| Ieri h: 23:55 | Sereno | 15 | 1 | 38 | 1015 | 10 | O 20.3 | |
| Ieri h: 22:55 | Sereno | 16 | 1 | 36 | 1014 | 10 | O 27.8 | |
| Ieri h: 21:55 | Sereno | 15 | 2 | 41 | 1014 | 10 | O 16.7 | |
| Ieri h: 20:55 | Sereno | 17 | 2 | 36 | 1013 | 10 | O/NO 11.1 | |
| Ieri h: 19:55 | Sereno | 18 | 1 | 31 | 1012 | 10 | O 18.5 | |
| Ieri h: 18:55 | Sereno | 19 | 1 | 29 | 1011 | 10 | O 35.2 | |
| Ieri h: 17:55 | Sereno | 20 | 1 | 28 | 1012 | 10 | O 37 | |
| Ieri h: 16:55 | Coperto | 21 | 1 | 26 | 1012 | 10 | O 33.3 | |
| Ieri h: 15:55 | Coperto | 20 | 1 | 28 | 1012 | 10 | O 42.6 | |



